createdAt,value
2019-05-25T00:02:13.269Z,5.92
2019-05-25T00:04:53.556Z,5.22
2019-05-25T00:07:29.876Z,5.17
2019-05-25T00:10:01.344Z,6.33
2019-05-25T00:12:32.757Z,6.72
2019-05-25T00:15:05.319Z,5.97
2019-05-25T00:17:36.608Z,5.33
2019-05-25T00:20:07.830Z,6.25
2019-05-25T00:22:38.858Z,5.30
2019-05-25T00:25:10.028Z,5.58
2019-05-25T00:27:41.075Z,5.92
2019-05-25T00:30:12.145Z,6.08
2019-05-25T00:32:43.129Z,5.53
2019-05-25T00:35:14.357Z,6.00
2019-05-25T00:37:45.457Z,6.58
2019-05-25T00:40:16.919Z,5.25
2019-05-25T00:42:47.892Z,5.60
2019-05-25T00:45:18.922Z,5.03
2019-05-25T00:47:49.894Z,5.22
2019-05-25T00:50:21.199Z,5.65
2019-05-25T00:52:52.192Z,4.22
2019-05-25T00:55:23.130Z,4.95
2019-05-25T00:57:54.505Z,5.42
2019-05-25T01:00:25.566Z,5.40
2019-05-25T01:02:56.567Z,4.97
2019-05-25T01:05:27.493Z,5.45
2019-05-25T01:07:58.462Z,4.28
2019-05-25T01:10:29.403Z,5.45
2019-05-25T01:13:00.364Z,4.20
2019-05-25T01:15:31.393Z,5.67
2019-05-25T01:18:02.362Z,5.53
2019-05-25T01:20:33.340Z,5.08
2019-05-25T01:23:04.383Z,6.25
2019-05-25T01:25:35.812Z,4.58
2019-05-25T01:28:06.773Z,5.60
2019-05-25T01:30:37.808Z,6.03
2019-05-25T01:33:08.781Z,5.78
2019-05-25T01:35:41.246Z,5.10
2019-05-25T01:38:12.267Z,5.60
2019-05-25T01:40:43.207Z,5.55
2019-05-25T01:43:14.177Z,4.75
2019-05-25T01:45:45.123Z,5.35
2019-05-25T01:48:17.114Z,4.95
2019-05-25T01:50:48.128Z,6.08
2019-05-25T01:53:19.094Z,5.05
2019-05-25T01:55:50.041Z,5.30
2019-05-25T01:58:22.226Z,6.00
2019-05-25T02:00:53.212Z,5.25
2019-05-25T02:03:24.289Z,5.58
2019-05-25T02:05:55.478Z,6.83
2019-05-25T02:08:26.472Z,6.22
2019-05-25T02:10:57.433Z,5.50
2019-05-25T02:13:29.164Z,5.83
2019-05-25T02:16:00.163Z,5.85
2019-05-25T02:18:31.136Z,5.10
2019-05-25T02:21:02.083Z,5.12
2019-05-25T02:23:33.049Z,5.58
2019-05-25T02:26:03.987Z,5.87
2019-05-25T02:28:34.975Z,6.45
2019-05-25T02:31:06.914Z,5.95
2019-05-25T02:33:37.880Z,6.28
2019-05-25T02:36:08.857Z,4.70
2019-05-25T02:38:39.920Z,5.05
2019-05-25T02:41:11.058Z,5.87
2019-05-25T02:43:42.250Z,5.37
2019-05-25T02:46:13.290Z,5.78
2019-05-25T02:48:44.219Z,5.65
2019-05-25T02:51:15.311Z,5.95
2019-05-25T02:53:46.460Z,4.80
2019-05-25T02:56:17.481Z,4.55
2019-05-25T02:58:48.416Z,5.28
2019-05-25T03:01:19.623Z,5.62
2019-05-25T03:03:50.660Z,5.50
2019-05-25T03:06:22.922Z,5.67
2019-05-25T03:08:56.768Z,11.40
2019-05-25T03:11:29.338Z,5.17
2019-05-25T03:14:00.399Z,9.88
2019-05-25T03:16:31.422Z,5.45
2019-05-25T03:19:02.362Z,5.92
2019-05-25T03:21:33.389Z,5.65
2019-05-25T03:24:04.383Z,5.28
2019-05-25T03:26:35.366Z,5.15
2019-05-25T03:29:06.392Z,6.37
2019-05-25T03:31:37.363Z,11.60
2019-05-25T03:34:09.393Z,10.03
2019-05-25T03:36:40.364Z,5.65
2019-05-25T03:39:11.303Z,9.43
2019-05-25T03:41:42.270Z,7.15
2019-05-25T03:44:13.205Z,6.40
2019-05-25T03:46:45.283Z,7.37
2019-05-25T03:49:16.223Z,9.93
2019-05-25T03:51:47.274Z,8.25
2019-05-25T03:54:18.212Z,22.70
2019-05-25T03:56:49.180Z,6.95
2019-05-25T03:59:21.216Z,5.78
2019-05-25T04:01:52.191Z,6.45
2019-05-25T04:04:23.064Z,7.60
2019-05-25T04:06:54.138Z,6.85
2019-05-25T04:09:25.088Z,6.95
2019-05-25T04:11:56.152Z,11.22
2019-05-25T04:14:27.093Z,12.58
2019-05-25T04:16:58.097Z,10.00
2019-05-25T04:19:29.138Z,7.60
2019-05-25T04:22:00.104Z,8.43
2019-05-25T04:24:31.059Z,6.50
2019-05-25T04:27:02.087Z,13.45
2019-05-25T04:29:33.026Z,41.00
2019-05-25T04:32:04.135Z,13.70
2019-05-25T04:34:35.071Z,7.17
2019-05-25T04:37:05.973Z,7.30
2019-05-25T04:39:36.916Z,7.03
2019-05-25T04:42:08.893Z,6.47
2019-05-25T04:44:40.847Z,7.67
2019-05-25T04:47:26.084Z,7.00
2019-05-25T04:49:44.490Z,6.50
2019-05-25T04:52:16.539Z,6.53
2019-05-25T04:54:47.477Z,6.28
2019-05-25T04:57:18.679Z,5.62
2019-05-25T04:59:49.671Z,7.03
2019-05-25T05:02:20.648Z,5.53
2019-05-25T05:04:51.594Z,6.30
2019-05-25T05:07:22.572Z,6.58
2019-05-25T05:10:02.058Z,19.62
2019-05-25T05:12:26.307Z,6.35
2019-05-25T05:14:58.253Z,5.85
2019-05-25T05:17:30.219Z,6.22
2019-05-25T05:20:01.171Z,5.70
2019-05-25T05:22:32.144Z,6.08
2019-05-25T05:25:03.143Z,5.37
2019-05-25T05:27:34.181Z,5.65
2019-05-25T05:30:07.444Z,6.55
2019-05-25T05:32:38.425Z,5.87
2019-05-25T05:35:09.765Z,4.28
2019-05-25T05:37:42.636Z,4.67
2019-05-25T05:40:14.107Z,4.87
2019-05-25T05:42:47.443Z,4.90
2019-05-25T05:45:18.444Z,4.75
2019-05-25T05:47:51.259Z,5.47
2019-05-25T05:50:22.598Z,5.20
2019-05-25T05:52:55.126Z,6.20
2019-05-25T05:55:33.136Z,6.30
2019-05-25T05:58:04.110Z,4.90
2019-05-25T06:00:35.051Z,5.85
2019-05-25T06:03:06.150Z,5.05
2019-05-25T06:05:37.092Z,5.53
2019-05-25T06:08:08.073Z,5.17
2019-05-25T06:10:39.031Z,5.05
2019-05-25T06:13:10.004Z,5.58
2019-05-25T06:15:40.981Z,5.35
2019-05-25T06:18:12.121Z,6.03
2019-05-25T06:20:43.096Z,6.78
2019-05-25T06:23:15.048Z,7.40
2019-05-25T06:25:46.029Z,5.67
2019-05-25T06:28:20.122Z,6.08
2019-05-25T06:30:49.685Z,6.83
2019-05-25T06:33:20.684Z,7.55
2019-05-25T06:35:51.659Z,5.90
2019-05-25T06:38:22.634Z,7.80
2019-05-25T06:40:54.677Z,6.17
2019-05-25T06:43:25.666Z,6.42
2019-05-25T06:45:56.700Z,7.15
2019-05-25T06:48:27.675Z,6.10
2019-05-25T06:50:58.641Z,5.65
2019-05-25T06:53:29.591Z,5.62
2019-05-25T06:56:00.580Z,5.83
2019-05-25T06:58:32.528Z,5.67
2019-05-25T07:01:03.521Z,5.27
2019-05-25T07:03:34.552Z,7.30
2019-05-25T07:06:05.696Z,6.00
2019-05-25T07:08:36.641Z,4.30
2019-05-25T07:11:07.617Z,4.80
2019-05-25T07:13:38.613Z,5.60
2019-05-25T07:16:09.566Z,4.73
2019-05-25T07:18:40.553Z,6.50
2019-05-25T07:21:11.489Z,4.03
2019-05-25T07:23:42.467Z,4.63
2019-05-25T07:26:13.427Z,5.60
2019-05-25T07:28:44.457Z,4.93
2019-05-25T07:31:15.437Z,5.70
2019-05-25T07:33:46.407Z,4.63
2019-05-25T07:36:17.451Z,4.50
2019-05-25T07:38:48.393Z,5.07
2019-05-25T07:41:19.396Z,5.40
2019-05-25T07:43:50.364Z,5.00
2019-05-25T07:46:21.372Z,4.17
2019-05-25T07:48:52.383Z,4.70
2019-05-25T07:51:23.376Z,4.90
2019-05-25T07:53:54.384Z,5.13
2019-05-25T07:56:26.359Z,5.77
2019-05-25T07:58:57.305Z,5.37
2019-05-25T08:01:28.314Z,3.77
2019-05-25T08:03:59.295Z,4.80
2019-05-25T08:06:30.327Z,5.10
2019-05-25T08:09:01.280Z,4.50
2019-05-25T08:11:33.436Z,8.67
2019-05-25T08:14:04.478Z,4.10
2019-05-25T08:16:35.473Z,9.27
2019-05-25T08:19:06.439Z,4.90
2019-05-25T08:21:37.489Z,5.83
2019-05-25T08:24:08.745Z,4.70
2019-05-25T08:26:39.724Z,6.97
2019-05-25T08:29:10.777Z,13.33
2019-05-25T08:31:41.755Z,4.10
2019-05-25T08:34:12.704Z,6.13
2019-05-25T08:36:43.789Z,4.87
2019-05-25T08:39:15.733Z,4.00
2019-05-25T08:41:46.710Z,9.10
2019-05-25T08:44:17.677Z,5.57
2019-05-25T08:46:48.655Z,4.10
2019-05-25T08:49:19.599Z,5.80
2019-05-25T08:51:50.567Z,4.13
2019-05-25T08:54:21.516Z,5.33
2019-05-25T08:56:52.548Z,5.67
2019-05-25T08:59:23.556Z,4.83
2019-05-25T09:01:54.532Z,7.20
2019-05-25T09:04:25.766Z,4.00
2019-05-25T09:06:56.927Z,3.60
2019-05-25T09:09:27.877Z,4.50
2019-05-25T09:11:58.855Z,4.57
2019-05-25T09:14:29.850Z,4.03
2019-05-25T09:17:01.963Z,4.17
2019-05-25T09:19:32.933Z,4.10
2019-05-25T09:22:04.265Z,3.90
2019-05-25T09:24:35.279Z,3.80
2019-05-25T09:27:06.875Z,35.23
2019-05-25T09:29:38.210Z,20.43
2019-05-25T09:32:09.200Z,4.13
2019-05-25T09:34:40.142Z,4.60
2019-05-25T09:37:11.113Z,5.37
2019-05-25T09:39:42.291Z,4.43
2019-05-25T09:42:13.502Z,5.17
2019-05-25T09:44:44.992Z,4.10
2019-05-25T09:47:16.020Z,4.40
2019-05-25T09:49:47.465Z,4.80
2019-05-25T09:52:18.533Z,4.40
2019-05-25T09:54:51.758Z,4.57
2019-05-25T09:57:23.136Z,3.57
2019-05-25T09:59:54.078Z,4.33
2019-05-25T10:02:25.049Z,4.00
2019-05-25T10:04:55.988Z,4.30
2019-05-25T10:07:26.971Z,4.27
2019-05-25T10:09:57.933Z,5.33
2019-05-25T10:12:28.910Z,4.70
2019-05-25T10:14:59.852Z,5.10
2019-05-25T10:17:30.832Z,5.40
2019-05-25T10:20:01.775Z,4.43
2019-05-25T10:22:32.817Z,4.87
2019-05-25T10:25:05.422Z,5.60
2019-05-25T10:27:36.395Z,4.20
2019-05-25T10:30:09.100Z,6.10
2019-05-25T10:32:40.082Z,4.90
2019-05-25T10:35:11.030Z,5.90
2019-05-25T10:37:42.012Z,5.77
2019-05-25T10:40:14.350Z,5.37
2019-05-25T10:42:45.330Z,15.23
2019-05-25T10:45:16.803Z,5.07
2019-05-25T10:47:47.773Z,4.30
2019-05-25T10:50:19.250Z,7.07
2019-05-25T10:52:50.223Z,5.60
2019-05-25T10:55:21.175Z,5.20
2019-05-25T10:57:52.143Z,5.80
2019-05-25T11:00:23.613Z,6.73
2019-05-25T11:02:54.697Z,5.83
2019-05-25T11:05:26.017Z,4.60
2019-05-25T11:07:56.990Z,5.20
2019-05-25T11:10:28.032Z,6.10
2019-05-25T11:12:59.003Z,4.90
2019-05-25T11:15:29.967Z,4.67
2019-05-25T11:18:00.943Z,6.00
2019-05-25T11:20:31.913Z,4.70
2019-05-25T11:23:04.026Z,5.40
2019-05-25T11:25:38.393Z,4.20
2019-05-25T11:28:09.397Z,7.10
2019-05-25T11:30:40.416Z,7.33
2019-05-25T11:33:11.657Z,5.40
2019-05-25T11:35:44.324Z,5.90
2019-05-25T11:38:15.269Z,3.80
2019-05-25T11:40:46.241Z,4.30
2019-05-25T11:43:17.183Z,4.30
2019-05-25T11:45:48.164Z,9.80
2019-05-25T11:48:19.142Z,4.53
2019-05-25T11:50:50.112Z,5.03
2019-05-25T11:53:21.053Z,5.13
2019-05-25T11:55:52.212Z,4.43
2019-05-25T11:58:23.179Z,4.20
2019-05-25T12:00:54.369Z,7.20
2019-05-25T12:03:25.383Z,6.40
2019-05-25T12:05:56.370Z,4.40
2019-05-25T12:08:27.324Z,4.83
2019-05-25T12:10:58.331Z,4.53
2019-05-25T12:13:32.058Z,3.87
2019-05-25T12:16:02.045Z,18.23
2019-05-25T12:18:33.002Z,4.23
2019-05-25T12:21:03.977Z,4.10
2019-05-25T12:23:34.981Z,3.97
2019-05-25T12:26:05.967Z,5.00
2019-05-25T12:28:36.918Z,6.50
2019-05-25T12:31:07.891Z,5.10
2019-05-25T12:33:38.849Z,5.53
2019-05-25T12:36:11.692Z,6.80
2019-05-25T12:38:42.706Z,4.40
2019-05-25T12:41:13.729Z,5.30
2019-05-25T12:43:44.669Z,5.13
2019-05-25T12:46:15.694Z,5.17
2019-05-25T12:48:46.749Z,5.40
2019-05-25T12:51:18.076Z,7.63
2019-05-25T12:53:50.141Z,4.10
2019-05-25T12:56:21.288Z,11.40
2019-05-25T12:58:52.436Z,3.77
2019-05-25T13:01:23.463Z,4.33
2019-05-25T13:03:54.403Z,4.40
2019-05-25T13:06:25.374Z,4.43
2019-05-25T13:08:56.457Z,5.17
2019-05-25T13:11:27.522Z,4.50
2019-05-25T13:14:06.343Z,4.97
2019-05-25T13:16:31.247Z,3.77
2019-05-25T13:19:02.200Z,5.57
2019-05-25T13:21:33.170Z,3.80
2019-05-25T13:24:04.119Z,4.50
2019-05-25T13:26:35.094Z,4.20
2019-05-25T13:29:06.345Z,6.23
2019-05-25T13:31:37.249Z,4.87
2019-05-25T13:34:08.404Z,3.90
2019-05-25T13:36:39.423Z,5.80
2019-05-25T13:39:10.365Z,5.13
2019-05-25T13:41:41.347Z,4.40
2019-05-25T13:44:12.290Z,4.10
2019-05-25T13:46:43.264Z,4.53
2019-05-25T13:49:14.214Z,4.73
2019-05-25T13:51:45.191Z,4.20
2019-05-25T13:54:16.133Z,4.23
2019-05-25T13:56:47.104Z,4.90
2019-05-25T13:59:18.047Z,4.83
2019-05-25T14:01:49.163Z,4.00
2019-05-25T14:04:20.102Z,4.60
2019-05-25T14:06:51.073Z,3.53
2019-05-25T14:09:22.011Z,4.20
2019-05-25T14:11:52.984Z,3.77
2019-05-25T14:14:24.657Z,4.63
2019-05-25T14:16:55.786Z,4.57
2019-05-25T14:19:26.757Z,4.23
2019-05-25T14:21:57.728Z,4.53
2019-05-25T14:24:28.702Z,4.13
2019-05-25T14:26:59.842Z,3.70
2019-05-25T14:29:30.823Z,4.63
2019-05-25T14:32:01.768Z,5.13
2019-05-25T14:34:32.735Z,4.97
2019-05-25T14:37:03.682Z,4.83
2019-05-25T14:39:34.655Z,6.60
2019-05-25T14:42:05.701Z,5.77
2019-05-25T14:44:36.745Z,4.80
2019-05-25T14:47:07.693Z,5.57
2019-05-25T14:49:38.717Z,5.30
2019-05-25T14:52:09.759Z,6.10
2019-05-25T14:54:40.837Z,5.70
2019-05-25T14:57:11.801Z,5.60
2019-05-25T14:59:42.930Z,6.10
2019-05-25T15:02:13.902Z,6.63
2019-05-25T15:04:44.960Z,7.13
2019-05-25T15:07:16.097Z,8.53
2019-05-25T15:09:47.236Z,8.33
2019-05-25T15:12:18.265Z,10.00
2019-05-25T15:14:49.273Z,9.50
2019-05-25T15:17:20.476Z,10.93
2019-05-25T15:19:51.432Z,10.80
2019-05-25T15:22:22.419Z,13.63
2019-05-25T15:24:53.372Z,15.57
2019-05-25T15:27:24.355Z,14.30
2019-05-25T15:29:55.318Z,13.63
2019-05-25T15:32:27.637Z,12.85
2019-05-25T15:34:58.733Z,14.33
2019-05-25T15:37:29.766Z,15.78
2019-05-25T15:40:00.726Z,18.65
2019-05-25T15:42:31.896Z,10.27
2019-05-25T15:45:02.876Z,10.37
2019-05-25T15:47:34.998Z,8.20
2019-05-25T15:50:11.461Z,8.40
2019-05-25T15:52:42.482Z,9.90
2019-05-25T15:55:13.783Z,9.40
2019-05-25T15:57:44.896Z,10.48
2019-05-25T16:00:18.646Z,10.38
2019-05-25T16:02:49.619Z,9.75
2019-05-25T16:05:21.508Z,10.30
2019-05-25T16:07:53.390Z,10.48
2019-05-25T16:10:24.437Z,10.43
2019-05-25T16:12:58.958Z,10.95
2019-05-25T16:15:41.272Z,10.48
2019-05-25T16:18:10.989Z,10.48
2019-05-25T16:20:43.210Z,10.55
2019-05-25T16:23:14.262Z,8.28
2019-05-25T16:25:45.283Z,10.63
2019-05-25T16:28:16.245Z,9.48
2019-05-25T16:30:47.547Z,8.73
2019-05-25T16:33:18.491Z,7.58
2019-05-25T16:35:49.476Z,8.60
2019-05-25T16:38:23.670Z,9.03
2019-05-25T16:40:56.216Z,7.45
2019-05-25T16:43:27.228Z,7.70
2019-05-25T16:45:58.212Z,6.00
2019-05-25T16:48:29.217Z,7.85
2019-05-25T16:51:00.276Z,38.10
2019-05-25T16:53:31.298Z,4.95
2019-05-25T16:56:02.290Z,7.55
2019-05-25T16:58:33.243Z,6.35
2019-05-25T17:01:04.240Z,5.45
2019-05-25T17:03:35.762Z,5.42
2019-05-25T17:06:06.746Z,5.67
2019-05-25T17:08:37.768Z,7.92
2019-05-25T17:11:08.749Z,21.65
2019-05-25T17:13:39.809Z,10.10
2019-05-25T17:16:10.891Z,6.80
2019-05-25T17:18:41.949Z,7.15
2019-05-25T17:21:13.212Z,12.28
2019-05-25T17:23:44.422Z,7.55
2019-05-25T17:26:15.577Z,10.98
2019-05-25T17:30:42.761Z,8.90
2019-05-25T17:33:14.897Z,11.70
2019-05-25T17:35:46.078Z,8.30
2019-05-25T17:38:17.109Z,9.15
2019-05-25T17:40:48.117Z,12.20
2019-05-25T17:43:19.545Z,11.97
2019-05-25T17:45:50.609Z,11.18
2019-05-25T17:48:21.884Z,9.48
2019-05-25T17:50:52.870Z,10.40
2019-05-25T17:53:23.923Z,12.75
2019-05-25T17:55:55.101Z,9.15
2019-05-25T17:58:26.153Z,12.82
2019-05-25T18:00:57.164Z,10.15
2019-05-25T18:03:28.178Z,8.55
2019-05-25T18:05:59.114Z,9.90
2019-05-25T18:08:30.176Z,9.70
2019-05-25T18:11:01.253Z,10.10
2019-05-25T18:13:37.967Z,8.53
2019-05-25T18:16:14.949Z,8.45
2019-05-25T18:18:45.949Z,8.03
2019-05-25T18:21:16.921Z,7.08
2019-05-25T18:23:48.000Z,6.90
2019-05-25T18:26:19.107Z,8.08
2019-05-25T18:28:50.110Z,7.50
2019-05-25T18:31:21.138Z,7.05
2019-05-25T18:33:52.172Z,6.00
2019-05-25T18:36:23.334Z,7.53
2019-05-25T18:38:54.425Z,7.87
2019-05-25T18:41:25.430Z,8.03
2019-05-25T18:43:57.446Z,7.40
2019-05-25T18:46:28.463Z,6.65
2019-05-25T18:48:59.507Z,7.33
2019-05-25T18:51:30.556Z,8.43
2019-05-25T18:54:01.907Z,7.75
2019-05-25T18:56:33.419Z,7.00
2019-05-25T18:59:04.500Z,6.78
2019-05-25T19:01:35.456Z,8.10
2019-05-25T19:04:06.669Z,9.28
2019-05-25T19:06:37.617Z,9.48
2019-05-25T19:09:10.878Z,8.75
2019-05-25T19:11:41.872Z,7.70
2019-05-25T19:14:12.851Z,9.28
2019-05-25T19:16:43.846Z,7.65
2019-05-25T19:19:14.834Z,8.48
2019-05-25T19:21:45.788Z,8.10
2019-05-25T19:24:16.769Z,9.25
2019-05-25T19:26:47.713Z,8.48
2019-05-25T19:29:18.832Z,9.00
2019-05-25T19:31:51.461Z,9.08
2019-05-25T19:34:22.432Z,9.68
2019-05-25T19:36:53.386Z,9.63
2019-05-25T19:39:24.714Z,10.28
2019-05-25T19:41:55.972Z,9.98
2019-05-25T19:44:27.007Z,10.78
2019-05-25T19:46:57.959Z,10.20
2019-05-25T19:49:29.075Z,11.05
2019-05-25T19:52:00.039Z,11.25
2019-05-25T19:54:31.073Z,11.70
2019-05-25T19:57:02.046Z,10.80
2019-05-25T19:59:33.077Z,11.15
2019-05-25T20:02:04.484Z,11.15
2019-05-25T20:04:35.462Z,12.80
2019-05-25T20:07:06.643Z,9.90
2019-05-25T20:09:37.690Z,11.35
2019-05-25T20:12:08.684Z,11.08
2019-05-25T20:14:39.702Z,9.68
2019-05-25T20:17:10.658Z,10.28
2019-05-25T20:19:41.687Z,10.13
2019-05-25T20:22:12.700Z,10.95
2019-05-25T20:24:43.748Z,10.65
2019-05-25T20:27:14.844Z,11.05
2019-05-25T20:29:45.888Z,9.58
2019-05-25T20:32:16.867Z,11.68
2019-05-25T20:34:47.896Z,11.33
2019-05-25T20:37:18.891Z,11.22
2019-05-25T20:39:49.953Z,11.10
2019-05-25T20:42:21.015Z,11.97
2019-05-25T20:44:52.267Z,11.78
2019-05-25T20:47:23.260Z,12.30
2019-05-25T20:49:54.204Z,13.55
2019-05-25T20:52:25.183Z,15.43
2019-05-25T20:54:56.275Z,13.60
2019-05-25T20:57:27.290Z,15.30
2019-05-25T20:59:58.422Z,14.28
2019-05-25T21:02:29.648Z,16.07
2019-05-25T21:05:00.688Z,16.57
2019-05-25T21:07:31.712Z,15.18
2019-05-25T21:10:03.199Z,16.77
2019-05-25T21:12:35.191Z,16.60
2019-05-25T21:15:10.662Z,16.23
2019-05-25T21:17:41.651Z,15.88
2019-05-25T21:20:13.222Z,17.02
2019-05-25T21:22:44.204Z,17.55
2019-05-25T21:25:15.483Z,17.92
2019-05-25T21:27:46.836Z,19.10
2019-05-25T21:30:18.049Z,19.50
2019-05-25T21:32:49.220Z,18.50
2019-05-25T21:35:20.323Z,19.85
2019-05-25T21:37:51.398Z,19.27
2019-05-25T21:40:22.370Z,19.23
2019-05-25T21:42:53.408Z,20.05
2019-05-25T21:45:24.359Z,20.43
2019-05-25T21:47:56.449Z,18.70
2019-05-25T21:50:28.839Z,20.45
2019-05-25T21:53:00.881Z,20.65
2019-05-25T21:55:32.921Z,18.95
2019-05-25T21:58:04.081Z,22.20
2019-05-25T22:00:36.768Z,19.60
2019-05-25T22:03:08.058Z,20.10
2019-05-25T22:05:39.006Z,19.75
2019-05-25T22:08:09.999Z,19.82
2019-05-25T22:10:40.954Z,19.45
2019-05-25T22:13:25.307Z,20.23
2019-05-25T22:15:44.610Z,16.80
2019-05-25T22:18:15.626Z,18.02
2019-05-25T22:20:46.763Z,18.62
2019-05-25T22:23:17.746Z,17.67
2019-05-25T22:25:48.816Z,18.15
2019-05-25T22:28:19.758Z,16.02
2019-05-25T22:30:50.804Z,16.10
2019-05-25T22:33:21.799Z,14.47
2019-05-25T22:35:52.768Z,15.00
2019-05-25T22:38:23.816Z,15.95
2019-05-25T22:40:54.816Z,15.53
2019-05-25T22:43:25.801Z,13.43
2019-05-25T22:45:56.835Z,15.85
2019-05-25T22:48:27.823Z,16.57
2019-05-25T22:50:58.781Z,15.85
2019-05-25T22:53:29.779Z,14.38
2019-05-25T22:56:00.843Z,14.23
2019-05-25T22:58:31.831Z,15.30
2019-05-25T23:01:02.872Z,15.25
2019-05-25T23:03:33.951Z,16.15
2019-05-25T23:06:04.966Z,16.77
2019-05-25T23:08:36.253Z,14.65
2019-05-25T23:11:07.308Z,18.40
2019-05-25T23:13:38.305Z,17.10
2019-05-25T23:16:10.831Z,17.23
2019-05-25T23:18:41.849Z,18.80
2019-05-25T23:21:12.891Z,18.52
2019-05-25T23:23:43.875Z,18.40
2019-05-25T23:26:14.909Z,19.12
2019-05-25T23:28:45.953Z,19.87
2019-05-25T23:31:16.871Z,19.75
2019-05-25T23:33:47.859Z,17.25
2019-05-25T23:36:18.817Z,18.45
2019-05-25T23:38:49.804Z,20.08
2019-05-25T23:41:20.762Z,19.05
2019-05-25T23:43:51.815Z,20.95
2019-05-25T23:46:22.972Z,20.00
2019-05-25T23:48:54.132Z,18.48
2019-05-25T23:51:25.172Z,18.85
2019-05-25T23:53:56.244Z,16.57
2019-05-25T23:56:27.288Z,17.60
2019-05-25T23:58:58.444Z,18.77
